ADDS METAR Data INFO
IDs: Format: Raw Decoded Include TAF

Data at: 0252 UTC 21 Oct 2017

KFLP 210156Z AUTO 14003KT 10SM CLR 18/15 A3004 RMK AO2 SLP170 T01830150 PNO $
KFLP 210056Z AUTO 00000KT 10SM CLR 18/16 A3006 RMK AO2 SLP176 T01830156 PNO $
KFLP 202356Z AUTO 00000KT 10SM SCT110 19/16 A3007 RMK AO2 RAB12E44 SLP179 6//// T01890156 10228 20189 55007 PNO $
KFLP 202256Z AUTO 14003KT 10SM CLR 20/15 A3006 RMK AO2 SLP176 T02000150 PNO $
KFLP 202156Z AUTO VRB05KT 10SM BKN120 21/15 A3007 RMK AO2 SLP178 T02060150 PNO $
KFLP 202056Z AUTO 17007KT 10SM CLR 21/15 A3009 RMK AO2 RAB07E18 SLP187 6//// T02110150 56020 PNO $
KFLP 201956Z AUTO VRB04KT 10SM CLR 21/14 A3010 RMK AO2 SLP189 T02110144 PNO $
KFLP 201856Z AUTO VRB04KT 10SM CLR 22/14 A3012 RMK AO2 SLP194 T02220144 PNO $
KFLP 201756Z AUTO VRB06KT 10SM CLR 22/14 A3015 RMK AO2 SLP206 6//// T02170139 10228 20078 58024 PNO $
KFLP 201656Z AUTO 12003KT 10SM CLR 19/12 A3018 RMK AO2 SLP217 T01890122 PNO $
KFLP 201556Z AUTO 00000KT 10SM CLR 16/12 A3020 RMK AO2 SLP224 T01610117 PNO $
KFLP 201456Z AUTO 00000KT 10SM CLR 12/11 A3022 RMK AO2 SLP232 6//// T01220106 53007 PNO $
KFLP 201356Z AUTO 00000KT 10SM CLR 11/09 A3020 RMK AO2 SLP224 T01060094 TSNO PNO $
KFLP 201256Z AUTO 00000KT 10SM CLR 08/07 A3020 RMK AO2 SLP223 T00830072 PNO $
KFLP 201156Z AUTO 00000KT 10SM CLR 08/07 A3020 RMK AO2 SLP224 6//// 7//// T00830072 10144 20083 53004 PNO $
KFLP 201056Z AUTO 00000KT 10SM CLR 09/08 A3019 RMK AO2 SLP221 T00890083 PNO $
KFLP 200956Z AUTO 00000KT 10SM CLR 09/08 A3019 RMK AO2 SLP219 T00890083 PNO $
KFLP 200856Z AUTO 00000KT 10SM CLR 11/09 A3019 RMK AO2 SLP217 6//// T01060089 51004 PNO $
KFLP 200756Z AUTO 00000KT 10SM CLR 11/09 A3019 RMK AO2 SLP217 T01110094 PNO $
KFLP 200656Z AUTO 14003KT 10SM CLR 13/10 A3019 RMK AO2 SLP216 T01280100 PNO $
KFLP 200556Z AUTO 00000KT 10SM CLR 12/10 A3018 RMK AO2 SLP213 6//// T01220100 10222 20122 402830072 58001 PNO $
KFLP 200456Z AUTO 10003KT 10SM CLR 14/11 A3018 RMK AO2 SLP215 T01440111 PNO $
KFLP 200356Z AUTO 00000KT 10SM CLR 16/11 A3018 RMK AO2 SLP217 T01610111 PNO $
KFLP 200256Z AUTO 00000KT 10SM CLR 14/11 A3018 RMK AO2 SLP215 6//// T01440111 53008 PNO $
KFLP 200156Z AUTO 26003KT 10SM CLR 17/12 A3017 RMK AO2 SLP212 T01670117 PNO $
KFLP 200056Z AUTO 00000KT 10SM CLR 20/12 A3016 RMK AO2 SLP211 T02000117 PNO $
KFLP 192356Z AUTO 00000KT 10SM CLR 22/11 A3015 RMK AO2 SLP207 6//// T02220111 10283 20222 53002 PNO $
KFLP 192256Z AUTO 15003KT 10SM CLR 24/09 A3015 RMK AO2 SLP207 T02440089 PNO $
KFLP 192156Z AUTO VRB03KT 10SM CLR 26/09 A3015 RMK AO2 SLP204 T02610089 PNO $
KFLP 192056Z AUTO 00000KT 10SM CLR 28/07 A3015 RMK AO2 SLP204 6//// T02780072 56019 PNO $
KFLP 191956Z AUTO 14004KT 10SM CLR 28/09 A3016 RMK AO2 SLP206 T02780089 PNO $
KFLP 191856Z AUTO VRB03KT 10SM CLR 27/09 A3018 RMK AO2 SLP213 T02670094 PNO $
KFLP 191756Z AUTO VRB03KT 10SM CLR 25/11 A3021 RMK AO2 SLP223 6//// T02500111 10256 20072 58012 PNO $
KFLP 191656Z AUTO VRB03KT 10SM CLR 23/12 A3023 RMK AO2 SLP231 T02330117 PNO $
KFLP 191556Z AUTO 00000KT 10SM CLR 19/12 A3024 RMK AO2 SLP235 T01940117 PNO $
KFLP 191456Z AUTO 00000KT 10SM CLR 15/11 A3024 RMK AO2 SLP238 6//// T01500106 51013 PNO $